Time;durP1;ratioP1;P1;durP2;ratioP2;P2;SDS_P1;SDS_P2;PMS_P1;PMS_P2;Temp;Humidity;BMP_temperature;BMP_pressure;BME280_temperature;BME280_humidity;BME280_pressure;Samples;Min_cycle;Max_cycle;Signal;HPM_P1;HPM_P2
2023/10/27 00:00:58;;;;;;;10.60;3.72;;;;;;;20.56;58.25;99597.81;4975236;28;20442;-86
2023/10/27 00:03:23;;;;;;;11.85;4.03;;;;;;;20.71;58.28;99624.03;4991422;28;20049;-87
2023/10/27 00:05:49;;;;;;;11.50;4.63;;;;;;;20.53;58.48;99600.97;4975048;28;20046;-87
2023/10/27 00:08:15;;;;;;;17.88;4.88;;;;;;;20.63;58.83;99631.44;4991332;28;20481;-87
2023/10/27 00:10:40;;;;;;;12.10;3.60;;;;;;;20.62;58.80;99639.81;5005888;28;20045;-87
2023/10/27 00:13:06;;;;;;;15.38;5.00;;;;;;;20.26;58.84;99576.66;4991683;28;20022;-88
2023/10/27 00:15:31;;;;;;;14.00;4.55;;;;;;;20.54;59.17;99632.72;5008332;28;20026;-87
2023/10/27 00:17:58;;;;;;;10.52;5.30;;;;;;;20.39;59.13;99613.00;4993129;28;20026;-88
2023/10/27 00:20:24;;;;;;;19.55;4.90;;;;;;;20.54;59.01;99640.06;4993264;28;20034;-87
2023/10/27 00:22:50;;;;;;;9.55;4.32;;;;;;;20.34;59.10;99610.03;5008095;28;20407;-88
2023/10/27 00:25:15;;;;;;;10.60;4.43;;;;;;;20.33;59.10;99594.72;4993134;28;20050;-89
2023/10/27 00:27:41;;;;;;;12.60;5.10;;;;;;;20.45;59.14;99617.59;4997728;28;20030;-89
2023/10/27 00:30:07;;;;;;;19.08;4.95;;;;;;;20.46;59.11;99619.25;5009076;28;20550;-89
2023/10/27 00:32:33;;;;;;;8.43;3.97;;;;;;;20.31;59.21;99596.81;5013983;28;20010;-89
2023/10/27 00:34:58;;;;;;;16.13;4.80;;;;;;;20.32;59.38;99603.97;5017361;28;20022;-88
2023/10/27 00:37:24;;;;;;;15.40;4.90;;;;;;;20.32;59.37;99595.75;5015843;28;20037;-88
2023/10/27 00:39:49;;;;;;;20.08;3.88;;;;;;;20.47;59.16;99620.94;4993247;28;20128;-88
2023/10/27 00:42:15;;;;;;;18.13;5.70;;;;;;;20.36;59.44;99607.94;4992906;28;20037;-89
2023/10/27 00:44:40;;;;;;;18.08;4.78;;;;;;;20.29;59.31;99598.94;4991453;28;20022;-88
2023/10/27 00:47:06;;;;;;;15.10;5.40;;;;;;;20.23;59.38;99597.00;4993292;28;20030;-88
2023/10/27 00:49:32;;;;;;;25.55;5.57;;;;;;;20.43;59.64;99624.31;4992914;28;20430;-89
2023/10/27 00:51:57;;;;;;;16.30;5.43;;;;;;;20.10;59.79;99569.72;4991545;28;20307;-89
2023/10/27 00:54:25;;;;;;;13.80;5.55;;;;;;;20.27;59.78;99611.13;4993215;28;20418;-87
2023/10/27 00:56:51;;;;;;;7.60;4.85;;;;;;;20.24;59.96;99609.63;4993247;28;20091;-88
2023/10/27 00:59:16;;;;;;;17.45;6.20;;;;;;;20.23;60.03;99598.91;4991862;28;20118;-88
2023/10/27 01:01:42;;;;;;;21.67;10.23;;;;;;;20.22;60.18;99606.25;4992792;28;20038;-89
2023/10/27 01:04:08;;;;;;;22.00;10.90;;;;;;;20.28;60.15;99616.34;4992406;28;20022;-88
2023/10/27 01:06:34;;;;;;;21.15;9.55;;;;;;;20.20;60.33;99602.03;4991047;28;20042;-88
2023/10/27 01:09:00;;;;;;;20.75;9.85;;;;;;;20.26;60.49;99623.91;4992191;28;20029;-87
2023/10/27 01:11:26;;;;;;;18.73;8.63;;;;;;;20.04;60.36;99592.41;4992114;28;20034;-86
2023/10/27 01:13:52;;;;;;;18.67;8.13;;;;;;;20.12;60.37;99605.81;4992875;28;20061;-87
2023/10/27 01:16:18;;;;;;;19.45;8.15;;;;;;;20.29;60.48;99636.31;4992334;28;20482;-88
2023/10/27 01:18:43;;;;;;;27.50;8.25;;;;;;;20.19;60.55;99623.03;4992942;28;20019;-87
2023/10/27 01:21:09;;;;;;;24.08;8.43;;;;;;;20.13;60.46;99593.84;5001185;28;20138;-89
2023/10/27 01:23:34;;;;;;;30.90;9.15;;;;;;;20.08;60.50;99578.13;5005419;28;20026;-88
2023/10/27 01:26:00;;;;;;;23.98;10.43;;;;;;;20.27;60.42;99603.78;5010192;28;20033;-88
2023/10/27 01:28:25;;;;;;;26.05;9.00;;;;;;;20.10;60.47;99575.19;5015257;28;20022;-88
2023/10/27 01:30:51;;;;;;;18.27;6.93;;;;;;;20.09;60.20;99568.88;5004201;28;20065;-89
2023/10/27 01:33:16;;;;;;;19.75;6.90;;;;;;;20.09;60.23;99563.41;4991474;28;20018;-87
2023/10/27 01:35:42;;;;;;;12.30;5.43;;;;;;;20.06;60.59;99560.25;4991089;28;20066;-87
2023/10/27 01:38:07;;;;;;;20.30;5.25;;;;;;;20.09;60.47;99576.22;4990966;28;20030;-88
2023/10/27 01:40:33;;;;;;;20.63;6.20;;;;;;;20.08;60.69;99596.41;4991030;28;20026;-87
2023/10/27 01:42:58;;;;;;;29.20;4.70;;;;;;;20.05;61.13;99594.09;4992177;28;20030;-88
2023/10/27 01:45:24;;;;;;;17.80;4.97;;;;;;;19.80;61.11;99563.88;4990601;28;20038;-88
2023/10/27 01:47:49;;;;;;;23.98;5.65;;;;;;;19.84;61.13;99575.19;4991152;28;20030;-88
2023/10/27 01:50:15;;;;;;;22.00;5.57;;;;;;;20.08;61.05;99615.50;4991428;28;20034;-89
2023/10/27 01:52:41;;;;;;;19.17;4.55;;;;;;;19.99;61.28;99597.66;4991175;28;20034;-88
2023/10/27 01:55:07;;;;;;;10.27;4.63;;;;;;;20.04;61.11;99614.22;4990854;28;20486;-88
2023/10/27 01:57:32;;;;;;;16.13;4.45;;;;;;;20.01;61.18;99599.13;4991000;28;20041;-89
2023/10/27 01:59:58;;;;;;;17.00;5.32;;;;;;;19.77;61.40;99552.53;4991110;28;20030;-89
2023/10/27 02:02:23;;;;;;;14.63;4.65;;;;;;;19.85;60.93;99566.78;5005573;28;20026;-88
2023/10/27 02:04:49;;;;;;;16.75;3.95;;;;;;;19.83;61.08;99562.59;4990675;28;20034;-89
2023/10/27 02:07:15;;;;;;;15.15;4.47;;;;;;;19.86;61.24;99584.00;4990640;28;20421;-88
2023/10/27 02:09:41;;;;;;;27.17;5.53;;;;;;;19.98;61.47;99604.16;4990671;28;20045;-89
2023/10/27 02:12:10;;;;;;;17.00;4.75;;;;;;;19.82;61.50;99593.66;4992392;28;20097;-88
2023/10/27 02:14:37;;;;;;;16.80;4.28;;;;;;;19.88;61.91;99617.38;5004168;28;20457;-88
2023/10/27 02:17:03;;;;;;;12.02;4.32;;;;;;;19.65;62.03;99565.13;5004376;28;20034;-88
2023/10/27 02:19:28;;;;;;;13.57;4.38;;;;;;;19.64;62.05;99569.72;5013233;28;20053;-88
2023/10/27 02:23:25;;;;;;;18.98;4.50;;;;;;;19.65;62.26;99593.22;5148514;27;20932;-88
2023/10/27 02:25:51;;;;;;;16.25;4.20;;;;;;;19.63;62.08;99610.88;5067614;28;20056;-87
2023/10/27 02:28:17;;;;;;;11.73;4.50;;;;;;;19.46;62.64;99583.97;5050818;28;20436;-88
2023/10/27 02:30:42;;;;;;;24.38;5.18;;;;;;;19.77;62.20;99616.13;5067174;28;20034;-90
2023/10/27 02:33:08;;;;;;;14.77;3.70;;;;;;;19.71;61.99;99597.00;5068776;28;20111;-88
2023/10/27 02:35:33;;;;;;;17.35;4.60;;;;;;;19.73;61.76;99594.91;5068800;28;20021;-88
2023/10/27 02:37:59;;;;;;;14.88;4.32;;;;;;;19.73;61.73;99598.47;5068629;28;20354;-88
2023/10/27 02:40:24;;;;;;;17.48;4.93;;;;;;;19.72;61.94;99604.16;5068166;28;20467;-88
2023/10/27 02:42:50;;;;;;;15.05;4.65;;;;;;;19.65;61.88;99600.56;5067918;28;20028;-89
2023/10/27 02:45:15;;;;;;;20.67;4.30;;;;;;;19.89;61.82;99644.47;5069244;28;20033;-88
2023/10/27 02:47:40;;;;;;;10.20;3.75;;;;;;;19.80;61.53;99639.41;5068038;28;20020;-88
2023/10/27 02:50:06;;;;;;;22.67;4.18;;;;;;;19.64;61.91;99609.78;5067685;28;20420;-89
2023/10/27 02:52:32;;;;;;;21.73;5.35;;;;;;;19.73;61.76;99616.72;5072279;28;20029;-88
2023/10/27 02:54:57;;;;;;;15.32;4.43;;;;;;;19.60;61.96;99608.56;5067802;28;20028;-87
2023/10/27 02:57:22;;;;;;;14.35;4.53;;;;;;;19.88;61.86;99653.69;5067459;28;20033;-89
2023/10/27 02:59:48;;;;;;;11.80;4.50;;;;;;;19.73;61.88;99617.56;5067252;28;20548;-88
2023/10/27 03:02:27;;;;;;;14.70;4.18;;;;;;;19.84;62.08;99635.22;5068321;28;20093;-87
2023/10/27 03:05:36;;;;;;;12.43;3.78;;;;;;;19.76;61.65;99619.03;5069828;28;20037;-88
2023/10/27 03:08:02;;;;;;;22.88;5.10;;;;;;;19.67;61.50;99591.13;4980292;28;20039;-89
2023/10/27 03:10:28;;;;;;;13.75;3.80;;;;;;;19.94;61.78;99646.56;4966438;28;20099;-89
2023/10/27 03:12:54;;;;;;;13.00;5.05;;;;;;;19.97;61.86;99649.72;4971355;28;20036;-89
2023/10/27 03:15:20;;;;;;;17.27;5.05;;;;;;;19.88;61.63;99636.47;4964496;28;20054;-88
2023/10/27 03:17:45;;;;;;;16.42;4.15;;;;;;;19.98;61.91;99647.81;4948174;29;20036;-88
2023/10/27 03:20:11;;;;;;;12.55;3.92;;;;;;;19.97;61.92;99651.59;4947536;28;20047;-89
2023/10/27 03:22:36;;;;;;;8.95;4.15;;;;;;;19.87;61.60;99632.09;4947394;28;20126;-89
2023/10/27 03:25:03;;;;;;;12.85;5.20;;;;;;;19.86;61.87;99644.03;4947282;28;20039;-88
2023/10/27 03:27:30;;;;;;;30.55;9.75;;;;;;;19.72;62.23;99624.09;4947010;29;20419;-90
2023/10/27 03:29:56;;;;;;;29.80;9.38;;;;;;;19.53;62.40;99601.19;4946615;28;20036;-89
2023/10/27 03:32:22;;;;;;;40.17;11.82;;;;;;;19.83;62.55;99649.91;4946502;29;20105;-88
2023/10/27 03:34:48;;;;;;;37.75;11.65;;;;;;;19.61;62.84;99624.69;4917221;29;20028;-86
2023/10/27 03:37:13;;;;;;;29.40;10.88;;;;;;;19.45;63.35;99622.34;4933426;29;20046;-88
2023/10/27 03:39:40;;;;;;;27.88;11.85;;;;;;;19.46;64.05;99643.13;4933908;29;20802;-88
2023/10/27 03:42:07;;;;;;;27.40;12.25;;;;;;;19.43;64.37;99638.94;4933355;29;20027;-87
2023/10/27 03:44:33;;;;;;;41.80;13.05;;;;;;;19.07;64.97;99610.25;4960157;28;20471;-88
2023/10/27 03:46:58;;;;;;;29.15;10.68;;;;;;;18.96;65.52;99615.25;5019882;28;20038;-87
2023/10/27 03:49:25;;;;;;;42.33;12.35;;;;;;;18.82;65.85;99591.72;5035058;28;20508;-88
2023/10/27 03:51:50;;;;;;;39.80;11.63;;;;;;;19.05;65.55;99634.97;5032789;28;20099;-88
2023/10/27 03:54:16;;;;;;;22.55;8.98;;;;;;;18.97;65.68;99632.44;5033957;28;20033;-85
2023/10/27 03:56:41;;;;;;;30.75;7.82;;;;;;;18.89;65.73;99621.72;5033601;28;20072;-86
2023/10/27 03:59:07;;;;;;;97.05;15.55;;;;;;;18.73;65.93;99601.09;5033959;28;20045;-81
2023/10/27 04:01:32;;;;;;;69.30;11.65;;;;;;;18.74;66.13;99602.78;5044212;28;20558;-85
2023/10/27 04:03:58;;;;;;;17.42;5.57;;;;;;;18.76;65.75;99587.09;5074729;28;20043;-90
2023/10/27 04:06:24;;;;;;;19.50;5.45;;;;;;;19.21;65.15;99645.53;5077999;28;20045;-90
2023/10/27 04:08:49;;;;;;;22.83;7.00;;;;;;;19.10;64.92;99607.97;5062464;28;20516;-90
2023/10/27 04:11:15;;;;;;;14.10;4.88;;;;;;;19.39;64.80;99634.03;5058182;28;20085;-85
2023/10/27 04:13:41;;;;;;;26.33;5.63;;;;;;;19.44;64.51;99639.78;5056933;28;20025;-81
2023/10/27 04:16:06;;;;;;;17.10;6.50;;;;;;;19.46;64.25;99638.53;5053367;28;20021;-81
2023/10/27 04:18:32;;;;;;;13.60;5.55;;;;;;;19.27;63.97;99590.19;5051714;28;20040;-83
2023/10/27 04:20:57;;;;;;;23.67;4.97;;;;;;;19.37;63.75;99596.09;5052046;28;20029;-83
2023/10/27 04:23:23;;;;;;;13.73;4.75;;;;;;;19.57;63.71;99622.59;5052450;28;20027;-82
2023/10/27 04:25:51;;;;;;;26.15;6.30;;;;;;;19.48;63.58;99603.69;5052021;28;20032;-83
2023/10/27 04:28:17;;;;;;;29.20;6.35;;;;;;;19.47;63.42;99598.47;5051939;28;20047;-81
2023/10/27 04:30:42;;;;;;;21.20;6.15;;;;;;;19.61;63.49;99624.69;5051526;28;20480;-81
2023/10/27 04:33:09;;;;;;;18.85;6.57;;;;;;;19.49;63.43;99613.56;5051281;28;20508;-81
2023/10/27 04:35:35;;;;;;;14.07;5.60;;;;;;;19.65;63.60;99636.88;5051115;28;20032;-82
2023/10/27 04:38:00;;;;;;;28.05;6.35;;;;;;;19.65;63.63;99641.50;5051399;28;20112;-81
2023/10/27 04:40:28;;;;;;;23.27;6.43;;;;;;;19.65;63.38;99636.88;5051442;28;20044;-81
2023/10/27 04:42:57;;;;;;;25.67;6.78;;;;;;;19.70;63.44;99634.38;5051157;28;20113;-81
2023/10/27 04:45:22;;;;;;;15.65;5.40;;;;;;;19.51;63.63;99614.19;5049466;28;20033;-81
2023/10/27 04:47:48;;;;;;;25.55;5.80;;;;;;;19.68;63.61;99641.09;5051777;28;20044;-81
2023/10/27 04:50:13;;;;;;;24.17;6.28;;;;;;;19.64;63.53;99634.34;5051759;28;20067;-81
2023/10/27 04:52:39;;;;;;;21.80;5.80;;;;;;;19.66;63.63;99637.72;5050386;28;20033;-81
2023/10/27 04:55:06;;;;;;;69.65;12.25;;;;;;;19.68;63.78;99641.09;5054015;28;20434;-81
2023/10/27 04:57:32;;;;;;;37.70;7.03;;;;;;;19.72;63.83;99642.34;5075693;28;20076;-81
2023/10/27 04:59:58;;;;;;;47.25;8.30;;;;;;;19.81;63.81;99641.09;5072245;28;20115;-82
2023/10/27 05:02:24;;;;;;;57.67;8.32;;;;;;;19.81;63.39;99635.66;5051938;28;20031;-81
2023/10/27 05:04:49;;;;;;;22.00;6.25;;;;;;;19.87;63.28;99652.03;5051471;28;20029;-81
2023/10/27 05:07:15;;;;;;;38.22;6.60;;;;;;;19.80;63.25;99633.97;5051806;28;20460;-81
2023/10/27 05:09:40;;;;;;;36.70;5.90;;;;;;;19.74;63.23;99618.44;5065492;28;20049;-81
2023/10/27 05:12:06;;;;;;;22.63;5.63;;;;;;;19.95;63.09;99654.56;5051109;28;20081;-81
2023/10/27 05:14:34;;;;;;;34.55;6.43;;;;;;;19.98;62.81;99656.00;5051096;28;20021;-81
2023/10/27 05:17:00;;;;;;;38.67;8.60;;;;;;;20.04;62.74;99649.72;5049696;28;20788;-81
2023/10/27 05:19:25;;;;;;;32.80;7.30;;;;;;;20.01;62.44;99652.88;5051371;28;20037;-82
2023/10/27 05:21:51;;;;;;;59.78;8.60;;;;;;;19.95;62.55;99637.34;5034483;28;20048;-81
2023/10/27 05:24:16;;;;;;;40.00;9.32;;;;;;;20.10;62.49;99662.53;5050855;28;20028;-80
2023/10/27 05:26:42;;;;;;;37.90;9.90;;;;;;;20.12;62.30;99665.88;5050780;28;20021;-81
2023/10/27 05:29:07;;;;;;;31.10;8.63;;;;;;;20.20;62.03;99657.50;5050991;28;20120;-80
2023/10/27 05:31:34;;;;;;;30.95;7.43;;;;;;;20.22;61.92;99666.31;5049910;28;20036;-82
2023/10/27 05:34:00;;;;;;;39.35;8.25;;;;;;;20.14;61.91;99650.16;5051062;28;20032;-82
2023/10/27 05:36:26;;;;;;;28.52;6.22;;;;;;;20.35;61.83;99671.81;5050908;28;20396;-82
2023/10/27 05:38:51;;;;;;;35.28;7.47;;;;;;;20.35;61.33;99663.63;5051484;28;20096;-82
2023/10/27 05:41:17;;;;;;;39.88;10.20;;;;;;;20.40;61.45;99674.72;5050996;28;20033;-80
2023/10/27 05:43:42;;;;;;;34.67;6.25;;;;;;;20.38;61.48;99671.38;5052285;28;20420;-82
2023/10/27 05:46:08;;;;;;;20.20;5.35;;;;;;;20.35;61.63;99671.81;5052838;28;20389;-83
2023/10/27 05:48:33;;;;;;;22.75;5.43;;;;;;;20.35;61.83;99666.34;5061340;28;20025;-82
2023/10/27 05:50:59;;;;;;;28.50;6.35;;;;;;;20.27;61.87;99658.38;5075552;28;20035;-81
2023/10/27 05:53:25;;;;;;;23.08;6.05;;;;;;;20.27;61.90;99663.00;5061432;28;20029;-82
2023/10/27 05:55:51;;;;;;;23.30;5.47;;;;;;;20.29;62.17;99669.91;5050293;28;20377;-81
2023/10/27 05:58:17;;;;;;;26.90;5.80;;;;;;;20.36;61.93;99669.94;5050194;28;20028;-82
2023/10/27 06:00:42;;;;;;;17.83;5.95;;;;;;;20.38;62.07;99665.09;5050507;28;20378;-82
2023/10/27 06:03:08;;;;;;;27.60;6.43;;;;;;;20.43;62.00;99666.13;5050024;28;20028;-82
2023/10/27 06:05:33;;;;;;;31.27;6.45;;;;;;;20.40;61.74;99652.88;5050430;28;20063;-81
2023/10/27 06:07:58;;;;;;;22.52;6.97;;;;;;;20.59;61.75;99667.56;5050342;28;20100;-81
2023/10/27 06:10:24;;;;;;;38.70;6.03;;;;;;;20.66;61.42;99673.03;5049898;28;20068;-83
2023/10/27 06:12:49;;;;;;;33.92;7.40;;;;;;;20.71;61.38;99681.41;5050112;28;20043;-81
2023/10/27 06:15:15;;;;;;;34.45;7.35;;;;;;;20.74;61.25;99670.06;5049720;28;20505;-82
2023/10/27 06:17:40;;;;;;;37.22;6.10;;;;;;;20.72;60.87;99662.09;5049887;28;20025;-82
2023/10/27 06:20:06;;;;;;;16.65;6.22;;;;;;;20.84;61.09;99665.00;5050159;28;20025;-81
2023/10/27 06:22:32;;;;;;;21.20;6.88;;;;;;;20.91;60.63;99668.56;5050152;28;20068;-84
2023/10/27 06:24:57;;;;;;;37.67;6.80;;;;;;;20.97;60.66;99673.19;5051490;28;20679;-80
2023/10/27 06:27:23;;;;;;;31.50;7.65;;;;;;;20.99;60.51;99669.16;5049872;28;20025;-81
2023/10/27 06:29:49;;;;;;;31.92;7.13;;;;;;;21.05;60.51;99671.03;5049868;28;20056;-80
2023/10/27 06:32:14;;;;;;;60.03;7.60;;;;;;;21.11;60.30;99661.16;5049995;28;20043;-82
2023/10/27 06:34:40;;;;;;;20.88;6.63;;;;;;;21.18;59.96;99661.97;5050476;28;20029;-81
2023/10/27 06:37:06;;;;;;;24.45;7.28;;;;;;;21.14;59.92;99668.94;5052795;28;20083;-81
2023/10/27 06:39:32;;;;;;;27.20;9.20;;;;;;;21.08;60.01;99645.16;5051483;28;20029;-81
2023/10/27 06:41:58;;;;;;;23.00;7.28;;;;;;;21.21;59.50;99655.22;5070987;28;20042;-81
2023/10/27 06:44:24;;;;;;;18.50;5.88;;;;;;;21.17;59.64;99639.25;5073751;28;20033;-81
2023/10/27 06:46:50;;;;;;;26.35;6.50;;;;;;;21.26;59.05;99636.25;5049557;28;20555;-81
2023/10/27 06:49:16;;;;;;;40.95;9.02;;;;;;;21.41;59.04;99645.88;5049726;28;20036;-81
2023/10/27 06:51:41;;;;;;;25.08;7.40;;;;;;;21.43;59.16;99649.25;5049523;28;20032;-81
2023/10/27 06:54:06;;;;;;;24.35;6.80;;;;;;;21.52;58.86;99638.88;5049052;28;20102;-81
2023/10/27 06:56:32;;;;;;;34.35;6.82;;;;;;;21.59;58.63;99648.72;5049254;28;20124;-82
2023/10/27 06:58:58;;;;;;;18.88;6.10;;;;;;;21.57;58.71;99633.56;5049347;28;20028;-82
2023/10/27 07:01:23;;;;;;;29.15;7.13;;;;;;;21.67;58.58;99640.25;5049016;28;20063;-81
2023/10/27 07:03:50;;;;;;;29.42;6.22;;;;;;;21.75;58.10;99651.97;5048740;28;20059;-82
2023/10/27 07:06:17;;;;;;;21.98;5.75;;;;;;;21.86;57.90;99652.13;5049033;28;20124;-81
2023/10/27 07:08:44;;;;;;;46.28;7.05;;;;;;;21.93;57.37;99649.34;5048767;28;20215;-81
2023/10/27 07:11:09;;;;;;;29.52;5.50;;;;;;;22.00;57.56;99645.53;5051735;28;20682;-82
2023/10/27 07:13:35;;;;;;;39.92;7.70;;;;;;;22.05;57.38;99658.53;5052704;28;20040;-82
2023/10/27 07:16:01;;;;;;;29.80;8.20;;;;;;;22.14;57.04;99640.75;5052423;28;20025;-82
2023/10/27 07:18:26;;;;;;;24.50;6.05;;;;;;;22.19;56.78;99643.69;5053099;28;20029;-82
2023/10/27 07:20:53;;;;;;;35.92;7.35;;;;;;;22.19;56.93;99643.69;5052541;28;20033;-82
2023/10/27 07:23:19;;;;;;;31.92;7.32;;;;;;;22.33;56.54;99641.66;5052430;28;20072;-81
2023/10/27 07:25:45;;;;;;;33.45;7.95;;;;;;;22.34;56.64;99630.50;5052661;28;20044;-81
2023/10/27 07:28:12;;;;;;;31.95;8.48;;;;;;;22.33;56.28;99622.47;5053069;28;20025;-80
2023/10/27 07:30:38;;;;;;;34.17;8.45;;;;;;;22.29;56.44;99613.91;5053176;28;20025;-81
2023/10/27 07:33:04;;;;;;;31.67;8.18;;;;;;;22.37;56.56;99616.34;5060793;28;20009;-80
2023/10/27 07:35:31;;;;;;;38.92;9.57;;;;;;;22.59;56.00;99627.72;5074825;28;20053;-80
2023/10/27 07:37:58;;;;;;;28.35;8.10;;;;;;;22.61;55.93;99623.69;5066212;28;20021;-82
2023/10/27 07:40:23;;;;;;;27.75;7.80;;;;;;;22.70;55.80;99621.50;5052984;28;20122;-82
2023/10/27 07:42:49;;;;;;;25.98;8.43;;;;;;;22.73;55.78;99624.63;5052260;28;20055;-81
2023/10/27 07:45:14;;;;;;;32.97;7.63;;;;;;;22.83;55.40;99620.53;5052564;28;20111;-82
2023/10/27 07:47:40;;;;;;;32.67;7.68;;;;;;;22.87;54.94;99602.56;5052915;28;20032;-82
2023/10/27 07:50:06;;;;;;;33.22;8.00;;;;;;;23.10;54.52;99622.72;5052850;28;20028;-81
2023/10/27 07:52:32;;;;;;;30.65;6.47;;;;;;;23.05;53.88;99624.47;5052463;28;20044;-83
2023/10/27 07:54:59;;;;;;;27.65;6.95;;;;;;;23.18;53.89;99627.03;5054344;28;20029;-82
2023/10/27 07:57:26;;;;;;;21.13;6.30;;;;;;;23.29;53.39;99623.53;5052531;28;20028;-82
2023/10/27 07:59:51;;;;;;;29.02;7.63;;;;;;;23.39;53.38;99623.88;5052145;28;20151;-82
2023/10/27 08:02:17;;;;;;;28.77;7.30;;;;;;;23.44;53.33;99637.72;5051857;28;20508;-81
2023/10/27 08:04:42;;;;;;;24.17;6.15;;;;;;;23.38;52.90;99638.59;5051748;28;20024;-81
2023/10/27 08:07:08;;;;;;;21.10;5.15;;;;;;;23.46;52.71;99635.56;5051807;28;20020;-82
2023/10/27 08:09:34;;;;;;;17.38;6.20;;;;;;;23.52;52.89;99623.66;5050520;28;20029;-81
2023/10/27 08:11:59;;;;;;;19.85;5.55;;;;;;;23.69;52.34;99637.56;5051700;28;20560;-83
2023/10/27 08:14:25;;;;;;;34.42;6.13;;;;;;;23.76;52.33;99628.16;5051614;28;20067;-81
2023/10/27 08:16:51;;;;;;;19.20;4.78;;;;;;;23.76;51.73;99619.91;5066578;28;20048;-81
2023/10/27 08:19:16;;;;;;;30.45;7.20;;;;;;;23.81;51.83;99610.97;5052325;28;20036;-82
2023/10/27 08:21:43;;;;;;;28.23;7.53;;;;;;;23.96;51.89;99611.38;5052648;28;20111;-81
2023/10/27 08:24:09;;;;;;;20.98;6.18;;;;;;;24.06;51.05;99610.78;5052583;28;20113;-81
2023/10/27 08:26:35;;;;;;;17.67;5.47;;;;;;;24.29;50.79;99608.09;5069658;28;20084;-80
2023/10/27 08:29:01;;;;;;;28.45;5.80;;;;;;;24.21;50.17;99587.31;5075343;28;20017;-81
2023/10/27 08:31:26;;;;;;;23.40;7.05;;;;;;;24.41;50.38;99606.19;5067839;28;20033;-83
2023/10/27 08:33:52;;;;;;;29.23;7.13;;;;;;;24.54;50.13;99591.34;5054888;28;20531;-82
2023/10/27 08:36:17;;;;;;;32.38;7.47;;;;;;;24.77;49.94;99589.41;5051721;28;20538;-82
2023/10/27 08:38:42;;;;;;;25.88;4.88;;;;;;;24.92;49.22;99590.84;5051972;28;20025;-82
2023/10/27 08:41:09;;;;;;;28.67;5.30;;;;;;;24.89;48.78;99587.50;5051425;28;20401;-81
2023/10/27 08:43:37;;;;;;;18.42;5.05;;;;;;;25.04;48.49;99586.16;5051253;28;20063;-81
2023/10/27 08:46:04;;;;;;;62.58;9.85;;;;;;;24.83;48.67;99551.91;5049122;28;20401;-81
2023/10/27 08:48:30;;;;;;;46.25;7.30;;;;;;;25.10;48.72;99575.00;5050748;28;20021;-82
2023/10/27 08:50:57;;;;;;;31.13;6.15;;;;;;;25.25;48.48;99577.22;5050741;28;20513;-82
2023/10/27 08:53:24;;;;;;;31.15;6.53;;;;;;;25.11;48.51;99562.06;5050614;28;20135;-80
2023/10/27 08:55:50;;;;;;;34.58;8.15;;;;;;;25.25;48.87;99568.97;5051838;28;20037;-82
2023/10/27 08:58:16;;;;;;;36.13;8.23;;;;;;;24.99;50.04;99553.84;5051567;28;20043;-81
2023/10/27 09:00:42;;;;;;;42.10;8.13;;;;;;;24.64;51.66;99569.59;5049066;28;20497;-81
2023/10/27 09:03:17;;;;;;;29.05;8.77;;;;;;;24.60;51.68;99572.00;5053835;28;20481;-82
2023/10/27 09:05:44;;;;;;;45.80;9.45;;;;;;;24.49;51.84;99561.84;5055539;28;20037;-80
2023/10/27 09:08:10;;;;;;;30.55;6.85;;;;;;;24.46;52.43;99567.84;5053737;28;20363;-82
2023/10/27 09:10:37;;;;;;;29.63;7.07;;;;;;;24.40;52.39;99552.31;5050484;28;20096;-80
2023/10/27 09:13:04;;;;;;;32.03;7.93;;;;;;;24.44;52.66;99555.38;5052277;28;20484;-82
2023/10/27 09:15:48;;;;;;;30.10;6.47;;;;;;;24.49;52.41;99553.59;5051515;28;20091;-80
2023/10/27 09:18:14;;;;;;;32.22;6.80;;;;;;;24.45;52.33;99535.91;5058966;28;20025;-80
2023/10/27 09:20:52;;;;;;;28.45;7.10;;;;;;;24.51;52.66;99545.94;5073458;28;20108;-80
2023/10/27 09:23:20;;;;;;;31.98;7.28;;;;;;;24.73;52.48;99538.72;5059857;28;20049;-81
2023/10/27 09:25:46;;;;;;;33.88;8.02;;;;;;;24.87;52.53;99536.56;5050948;28;20032;-81
2023/10/27 09:28:13;;;;;;;26.90;6.15;;;;;;;24.85;52.15;99531.31;5050590;28;20167;-81
2023/10/27 09:30:42;;;;;;;42.17;8.25;;;;;;;25.05;52.27;99530.03;5050208;28;20158;-81
2023/10/27 09:33:18;;;;;;;41.28;7.70;;;;;;;25.32;51.76;99522.84;5050304;28;20115;-82
2023/10/27 09:35:49;;;;;;;55.15;10.40;;;;;;;25.50;51.66;99517.19;5050066;28;20512;-81
2023/10/27 09:38:16;;;;;;;32.85;6.00;;;;;;;25.50;51.79;99522.69;5050536;28;20104;-82
2023/10/27 09:40:43;;;;;;;45.75;7.57;;;;;;;25.35;52.03;99522.38;5050509;28;20024;-82
2023/10/27 09:43:16;;;;;;;40.78;8.57;;;;;;;25.40;52.18;99516.97;5050489;28;20035;-80
2023/10/27 09:45:52;;;;;;;39.42;9.05;;;;;;;25.57;51.95;99523.34;5050424;28;20029;-81
2023/10/27 09:48:23;;;;;;;35.40;8.20;;;;;;;25.59;52.06;99504.66;5050302;28;20029;-81
2023/10/27 09:50:49;;;;;;;44.47;8.48;;;;;;;25.71;51.68;99497.16;5049316;28;20053;-82
2023/10/27 09:53:15;;;;;;;47.20;8.65;;;;;;;25.86;51.55;99505.66;5050571;28;20056;-82
2023/10/27 09:55:42;;;;;;;49.65;8.43;;;;;;;25.97;51.61;99496.47;5064744;28;20036;-82
2023/10/27 09:58:08;;;;;;;27.05;7.05;;;;;;;25.89;51.27;99491.38;5049835;28;20029;-83
2023/10/27 10:00:34;;;;;;;30.23;6.25;;;;;;;26.03;51.01;99482.75;5049860;28;20377;-83
2023/10/27 10:03:02;;;;;;;31.65;7.15;;;;;;;26.05;51.08;99475.09;5048594;28;20033;-82
2023/10/27 10:05:28;;;;;;;40.60;7.18;;;;;;;26.08;50.89;99475.41;5050700;28;20036;-82
2023/10/27 10:08:00;;;;;;;38.65;8.25;;;;;;;26.07;50.85;99472.91;5050813;28;20495;-81
2023/10/27 10:10:32;;;;;;;38.22;7.53;;;;;;;25.91;50.85;99469.09;5056647;28;20021;-81
2023/10/27 10:13:19;;;;;;;37.97;8.10;;;;;;;25.88;51.32;99464.91;5074003;28;20359;-80
2023/10/27 10:15:46;;;;;;;51.42;8.68;;;;;;;25.67;51.45;99462.94;5061591;28;20057;-81
2023/10/27 10:18:21;;;;;;;45.45;9.77;;;;;;;25.56;51.76;99460.28;5050294;28;20059;-80
2023/10/27 10:20:49;;;;;;;40.13;8.20;;;;;;;25.55;51.99;99451.16;5049453;28;20082;-82
2023/10/27 10:23:18;;;;;;;46.85;8.63;;;;;;;25.43;51.92;99447.63;5049222;28;20045;-82
2023/10/27 10:25:54;;;;;;;42.50;7.03;;;;;;;25.35;51.95;99443.38;5049439;28;20037;-81
2023/10/27 10:28:20;;;;;;;42.90;8.57;;;;;;;25.41;51.25;99452.56;5049348;28;20033;-82
2023/10/27 10:30:47;;;;;;;42.67;8.20;;;;;;;25.46;51.21;99458.16;5049601;28;20029;-82
2023/10/27 10:33:28;;;;;;;50.65;8.95;;;;;;;25.59;51.59;99459.78;5049645;28;20056;-81
2023/10/27 10:36:22;;;;;;;37.42;7.18;;;;;;;25.67;50.49;99457.41;5049310;28;20025;-82
2023/10/27 10:38:57;;;;;;;36.45;6.80;;;;;;;25.69;50.41;99438.72;5049375;28;20412;-81
2023/10/27 10:41:40;;;;;;;45.05;8.77;;;;;;;25.63;50.38;99419.59;5050415;28;20074;-81
2023/10/27 10:44:13;;;;;;;40.70;7.85;;;;;;;25.88;49.77;99442.03;5051386;28;20025;-81
2023/10/27 10:46:39;;;;;;;49.88;8.25;;;;;;;25.97;49.76;99441.34;5053693;28;20036;-82
2023/10/27 10:49:05;;;;;;;43.28;8.75;;;;;;;26.09;49.51;99427.47;5053727;28;20496;-80
2023/10/27 10:51:36;;;;;;;36.65;7.72;;;;;;;26.18;49.48;99427.88;5053728;28;20033;-82
2023/10/27 10:54:02;;;;;;;29.48;6.97;;;;;;;26.29;48.77;99429.69;5053658;28;20104;-81
2023/10/27 10:56:28;;;;;;;29.02;7.18;;;;;;;26.34;49.18;99421.50;5053782;28;20061;-82
2023/10/27 10:58:54;;;;;;;36.53;7.78;;;;;;;26.46;48.84;99405.66;5054654;28;20500;-82
2023/10/27 11:01:21;;;;;;;46.40;7.45;;;;;;;26.73;49.19;99424.97;5054244;28;20060;-83
2023/10/27 11:03:49;;;;;;;38.33;7.25;;;;;;;26.78;48.58;99400.22;5067092;28;20025;-82
2023/10/27 11:06:17;;;;;;;43.05;8.05;;;;;;;26.97;48.39;99391.34;5075324;28;20102;-82
2023/10/27 11:08:44;;;;;;;37.63;8.13;;;;;;;27.09;48.72;99406.91;5059745;28;20036;-82
2023/10/27 11:11:14;;;;;;;30.88;7.50;;;;;;;27.15;48.23;99397.59;5052535;28;20432;-82
2023/10/27 11:13:45;;;;;;;36.85;7.75;;;;;;;27.11;48.29;99399.19;5053405;28;20496;-82
2023/10/27 11:16:23;;;;;;;58.50;10.43;;;;;;;26.80;48.73;99357.50;5053271;28;20051;-81
2023/10/27 11:18:54;;;;;;;35.38;7.63;;;;;;;26.98;48.51;99373.69;5052902;28;20017;-82
2023/10/27 11:21:23;;;;;;;49.20;8.38;;;;;;;26.98;48.22;99376.44;5052622;28;20053;-81
2023/10/27 11:23:50;;;;;;;54.15;8.82;;;;;;;27.06;48.14;99383.44;5052714;28;20043;-81